KPAH/PAH METAR and TAF weather

Enter ICAO airport designator
Station Type Date Time Source
KPAH METAR 2019/10/23 20:53 UTC NOAA

KPAH 232053Z VRB06G16KT 10SM CLR 21/01 A3008 RMK AO2 SLP186 T02060011 55014


Station Type Date Time Source
KPAH Decoded METAR 2019/10/23 20:53 UTC NOAA

BARKLEY REGIONAL AIRPORT, KY, United States (KPAH) 37-03N 088-46W 118M
Oct 23, 2019 - 04:53 PM EDT / 2019.10.23 2053 UTC
Wind: Variable at 7 MPH (6 KT) gusting to 18 MPH (16 KT):0
Visibility: 10 mile(s):0
Sky conditions: clear
Temperature: 69.1 F (20.6 C)
Dew Point: 34.0 F (1.1 C)
Relative Humidity: 27%
Pressure (altimeter): 30.08 in. Hg (1018 hPa)
Pressure tendency: 0.04 inches (1.4 hPa) lower than three hours ago
ob: KPAH 232053Z VRB06G16KT 10SM CLR 21/01 A3008 RMK AO2 SLP186 T02060011 55014
cycle: 21

Station Type Date Time Source
KPAH TAF 2019/10/23 18:22 UTC NOAA

TAF KPAH 231720Z 2318/2418 20011KT P6SM FEW250
TEMPO 2318/2322 21013G22KT
FM232300 18007KT P6SM SCT250
FM240200 19005KT P6SM SCT250
FM241500 VRB04KT P6SM SCT100 BKN250

Example: see airport list